sensor_id;sensor_type;location;lat;lon;timestamp;pressure;altitude;pressure_sealevel;temperature;humidity
71956;BME280;59829;50.562;6.258;2022-09-17T00:07:36;95459.47;;;7.29;100.00
71956;BME280;59829;50.562;6.258;2022-09-17T00:17:37;95474.31;;;7.35;100.00
71956;BME280;59829;50.562;6.258;2022-09-17T00:27:37;95474.75;;;7.29;100.00
71956;BME280;59829;50.562;6.258;2022-09-17T00:37:38;95467.81;;;7.31;100.00
71956;BME280;59829;50.562;6.258;2022-09-17T00:47:42;95477.78;;;7.34;100.00
71956;BME280;59829;50.562;6.258;2022-09-17T00:57:45;95475.47;;;7.42;100.00
71956;BME280;59829;50.562;6.258;2022-09-17T01:08:12;95482.91;;;7.45;100.00
71956;BME280;59829;50.562;6.258;2022-09-17T01:18:35;95485.25;;;7.48;100.00
71956;BME280;59829;50.562;6.258;2022-09-17T01:28:55;95497.72;;;7.40;100.00
71956;BME280;59829;50.562;6.258;2022-09-17T01:39:15;95503.69;;;7.28;100.00
71956;BME280;59829;50.562;6.258;2022-09-17T01:49:18;95504.59;;;7.51;100.00
71956;BME280;59829;50.562;6.258;2022-09-17T01:59:30;95502.16;;;7.49;100.00
71956;BME280;59829;50.562;6.258;2022-09-17T02:09:44;95519.31;;;7.47;100.00
71956;BME280;59829;50.562;6.258;2022-09-17T02:19:47;95522.34;;;7.52;100.00
71956;BME280;59829;50.562;6.258;2022-09-17T02:29:47;95526.63;;;7.52;100.00
71956;BME280;59829;50.562;6.258;2022-09-17T02:39:48;95525.28;;;7.70;100.00
71956;BME280;59829;50.562;6.258;2022-09-17T03:00:19;95524.75;;;7.89;100.00
71956;BME280;59829;50.562;6.258;2022-09-17T03:10:20;95512.50;;;8.05;100.00
71956;BME280;59829;50.562;6.258;2022-09-17T03:20:21;95532.75;;;7.84;100.00
71956;BME280;59829;50.562;6.258;2022-09-17T03:30:21;95526.59;;;7.87;100.00
71956;BME280;59829;50.562;6.258;2022-09-17T03:40:21;95536.00;;;7.86;100.00
71956;BME280;59829;50.562;6.258;2022-09-17T03:50:22;95550.03;;;7.92;100.00
71956;BME280;59829;50.562;6.258;2022-09-17T04:00:22;95526.09;;;7.71;100.00
71956;BME280;59829;50.562;6.258;2022-09-17T04:10:23;95539.59;;;7.84;100.00
71956;BME280;59829;50.562;6.258;2022-09-17T04:20:24;95548.66;;;7.99;100.00
71956;BME280;59829;50.562;6.258;2022-09-17T04:30:25;95549.91;;;7.82;100.00
71956;BME280;59829;50.562;6.258;2022-09-17T04:40:25;95541.91;;;7.87;100.00
71956;BME280;59829;50.562;6.258;2022-09-17T04:50:26;95558.88;;;7.99;100.00
71956;BME280;59829;50.562;6.258;2022-09-17T05:00:26;95563.94;;;7.88;100.00
71956;BME280;59829;50.562;6.258;2022-09-17T05:10:27;95566.88;;;8.06;100.00
71956;BME280;59829;50.562;6.258;2022-09-17T05:20:27;95572.28;;;7.90;100.00
71956;BME280;59829;50.562;6.258;2022-09-17T05:30:27;95573.25;;;8.00;100.00
71956;BME280;59829;50.562;6.258;2022-09-17T05:40:29;95585.72;;;7.92;100.00
71956;BME280;59829;50.562;6.258;2022-09-17T05:50:30;95592.66;;;8.25;100.00
71956;BME280;59829;50.562;6.258;2022-09-17T06:00:30;95596.47;;;8.31;100.00
71956;BME280;59829;50.562;6.258;2022-09-17T06:10:31;95593.00;;;8.32;100.00
71956;BME280;59829;50.562;6.258;2022-09-17T06:20:31;95606.09;;;8.27;100.00
71956;BME280;59829;50.562;6.258;2022-09-17T06:30:32;95608.84;;;8.48;100.00
71956;BME280;59829;50.562;6.258;2022-09-17T06:40:32;95616.38;;;8.50;100.00
71956;BME280;59829;50.562;6.258;2022-09-17T06:50:32;95627.56;;;8.25;100.00
71956;BME280;59829;50.562;6.258;2022-09-17T07:00:33;95631.38;;;8.65;100.00
71956;BME280;59829;50.562;6.258;2022-09-17T07:10:33;95624.53;;;8.77;100.00
71956;BME280;59829;50.562;6.258;2022-09-17T07:20:34;95622.44;;;8.82;100.00
71956;BME280;59829;50.562;6.258;2022-09-17T07:30:35;95623.50;;;8.68;100.00
71956;BME280;59829;50.562;6.258;2022-09-17T07:40:35;95618.41;;;8.91;100.00
71956;BME280;59829;50.562;6.258;2022-09-17T07:50:36;95641.31;;;8.46;100.00
71956;BME280;59829;50.562;6.258;2022-09-17T08:00:37;95649.94;;;8.67;100.00
71956;BME280;59829;50.562;6.258;2022-09-17T08:10:37;95652.03;;;8.85;100.00
71956;BME280;59829;50.562;6.258;2022-09-17T08:20:37;95649.50;;;9.18;100.00
71956;BME280;59829;50.562;6.258;2022-09-17T08:30:38;95652.44;;;9.68;100.00
71956;BME280;59829;50.562;6.258;2022-09-17T08:40:47;95659.22;;;9.47;100.00
71956;BME280;59829;50.562;6.258;2022-09-17T08:50:51;95654.13;;;9.90;100.00
71956;BME280;59829;50.562;6.258;2022-09-17T09:00:57;95664.41;;;10.43;100.00
71956;BME280;59829;50.562;6.258;2022-09-17T09:11:06;95655.19;;;10.40;100.00
71956;BME280;59829;50.562;6.258;2022-09-17T09:21:19;95655.03;;;9.57;100.00
71956;BME280;59829;50.562;6.258;2022-09-17T09:31:37;95669.31;;;10.03;100.00
71956;BME280;59829;50.562;6.258;2022-09-17T09:41:46;95663.47;;;10.12;100.00
71956;BME280;59829;50.562;6.258;2022-09-17T09:52:03;95675.94;;;9.51;100.00
71956;BME280;59829;50.562;6.258;2022-09-17T10:02:08;95690.84;;;9.34;100.00
71956;BME280;59829;50.562;6.258;2022-09-17T10:22:29;95661.56;;;11.28;99.62
71956;BME280;59829;50.562;6.258;2022-09-17T10:32:30;95654.44;;;11.91;95.13
71956;BME280;59829;50.562;6.258;2022-09-17T10:42:30;95652.16;;;11.88;95.09
71956;BME280;59829;50.562;6.258;2022-09-17T10:52:37;95632.69;;;12.90;88.64
71956;BME280;59829;50.562;6.258;2022-09-17T11:34:21;95607.25;;;11.53;80.67
71956;BME280;59829;50.562;6.258;2022-09-17T11:44:30;95610.94;;;13.67;77.49
71956;BME280;59829;50.562;6.258;2022-09-17T11:54:52;95583.09;;;13.80;72.13
71956;BME280;59829;50.562;6.258;2022-09-17T12:05:04;95632.06;;;11.03;95.43
71956;BME280;59829;50.562;6.258;2022-09-17T12:15:13;95618.09;;;10.55;100.00
71956;BME280;59829;50.562;6.258;2022-09-17T12:25:17;95611.44;;;12.51;98.39
71956;BME280;59829;50.562;6.258;2022-09-17T13:16:40;95575.22;;;11.38;100.00
71956;BME280;59829;50.562;6.258;2022-09-17T13:26:42;95594.63;;;11.11;100.00
71956;BME280;59829;50.562;6.258;2022-09-17T13:46:46;95627.22;;;9.20;100.00
71956;BME280;59829;50.562;6.258;2022-09-17T13:57:03;95638.13;;;8.77;100.00
71956;BME280;59829;50.562;6.258;2022-09-17T14:17:55;95626.53;;;9.07;100.00
71956;BME280;59829;50.562;6.258;2022-09-17T14:27:59;95606.84;;;12.45;98.81
71956;BME280;59829;50.562;6.258;2022-09-17T14:48:25;95589.00;;;16.84;68.73
71956;BME280;59829;50.562;6.258;2022-09-17T14:58:33;95577.38;;;18.04;59.91
71956;BME280;59829;50.562;6.258;2022-09-17T15:08:35;95584.88;;;14.93;69.81
71956;BME280;59829;50.562;6.258;2022-09-17T15:18:40;95596.59;;;12.35;80.60
71956;BME280;59829;50.562;6.258;2022-09-17T15:28:42;95590.09;;;19.04;56.57
71956;BME280;59829;50.562;6.258;2022-09-17T15:38:44;95578.53;;;20.57;51.31
71956;BME280;59829;50.562;6.258;2022-09-17T15:48:44;95569.00;;;22.34;44.51
71956;BME280;59829;50.562;6.258;2022-09-17T16:08:55;95577.22;;;21.37;45.33
71956;BME280;59829;50.562;6.258;2022-09-17T16:18:56;95589.31;;;16.81;55.79
71956;BME280;59829;50.562;6.258;2022-09-17T16:29:26;95606.13;;;13.36;72.33
71956;BME280;59829;50.562;6.258;2022-09-17T16:39:26;95626.28;;;11.51;89.55
71956;BME280;59829;50.562;6.258;2022-09-17T16:49:27;95638.66;;;10.65;100.00
71956;BME280;59829;50.562;6.258;2022-09-17T16:59:27;95641.06;;;10.67;100.00
71956;BME280;59829;50.562;6.258;2022-09-17T17:09:27;95642.97;;;10.65;100.00
71956;BME280;59829;50.562;6.258;2022-09-17T17:19:29;95671.81;;;9.82;100.00
71956;BME280;59829;50.562;6.258;2022-09-17T17:29:30;95677.56;;;9.52;100.00
71956;BME280;59829;50.562;6.258;2022-09-17T17:39:30;95684.34;;;9.08;100.00
71956;BME280;59829;50.562;6.258;2022-09-17T17:49:30;95692.47;;;9.02;100.00
71956;BME280;59829;50.562;6.258;2022-09-17T17:59:31;95701.06;;;8.90;100.00
71956;BME280;59829;50.562;6.258;2022-09-17T18:09:31;95706.63;;;8.84;100.00
71956;BME280;59829;50.562;6.258;2022-09-17T18:19:32;95723.56;;;8.85;100.00
71956;BME280;59829;50.562;6.258;2022-09-17T18:29:32;95727.50;;;8.77;100.00
71956;BME280;59829;50.562;6.258;2022-09-17T18:39:33;95734.56;;;8.63;100.00
71956;BME280;59829;50.562;6.258;2022-09-17T18:49:33;95735.94;;;8.56;100.00
71956;BME280;59829;50.562;6.258;2022-09-17T18:59:33;95744.03;;;8.50;100.00
71956;BME280;59829;50.562;6.258;2022-09-17T19:09:33;95762.72;;;8.50;100.00
71956;BME280;59829;50.562;6.258;2022-09-17T19:19:34;95757.13;;;8.45;100.00
71956;BME280;59829;50.562;6.258;2022-09-17T19:29:34;95769.66;;;8.48;100.00
71956;BME280;59829;50.562;6.258;2022-09-17T19:39:34;95775.88;;;8.57;100.00
71956;BME280;59829;50.562;6.258;2022-09-17T19:49:35;95785.38;;;8.55;100.00
71956;BME280;59829;50.562;6.258;2022-09-17T19:59:35;95785.50;;;8.64;100.00
71956;BME280;59829;50.562;6.258;2022-09-17T20:09:36;95798.97;;;8.66;100.00
71956;BME280;59829;50.562;6.258;2022-09-17T20:19:36;95787.50;;;8.37;100.00
71956;BME280;59829;50.562;6.258;2022-09-17T20:29:36;95778.22;;;8.36;100.00
71956;BME280;59829;50.562;6.258;2022-09-17T20:39:36;95783.31;;;8.36;100.00
71956;BME280;59829;50.562;6.258;2022-09-17T20:49:37;95790.53;;;8.42;100.00
71956;BME280;59829;50.562;6.258;2022-09-17T20:59:37;95798.19;;;8.42;100.00
71956;BME280;59829;50.562;6.258;2022-09-17T21:09:52;95793.84;;;8.55;100.00
71956;BME280;59829;50.562;6.258;2022-09-17T21:19:52;95785.91;;;8.47;100.00
71956;BME280;59829;50.562;6.258;2022-09-17T21:29:53;95795.69;;;8.53;100.00
71956;BME280;59829;50.562;6.258;2022-09-17T21:39:54;95800.59;;;8.56;100.00
71956;BME280;59829;50.562;6.258;2022-09-17T21:49:54;95792.91;;;8.56;100.00
71956;BME280;59829;50.562;6.258;2022-09-17T21:59:54;95799.19;;;8.52;100.00
71956;BME280;59829;50.562;6.258;2022-09-17T22:09:55;95786.44;;;8.63;100.00
71956;BME280;59829;50.562;6.258;2022-09-17T22:19:55;95792.81;;;8.58;100.00
71956;BME280;59829;50.562;6.258;2022-09-17T22:29:55;95811.72;;;8.55;100.00
71956;BME280;59829;50.562;6.258;2022-09-17T22:39:55;95806.09;;;8.50;100.00
71956;BME280;59829;50.562;6.258;2022-09-17T22:49:56;95805.09;;;8.53;100.00
71956;BME280;59829;50.562;6.258;2022-09-17T22:59:56;95803.31;;;8.42;100.00
71956;BME280;59829;50.562;6.258;2022-09-17T23:09:56;95795.81;;;8.52;100.00
71956;BME280;59829;50.562;6.258;2022-09-17T23:19:57;95786.13;;;8.44;100.00
71956;BME280;59829;50.562;6.258;2022-09-17T23:29:57;95777.78;;;8.42;100.00
71956;BME280;59829;50.562;6.258;2022-09-17T23:39:57;95786.13;;;8.44;100.00
71956;BME280;59829;50.562;6.258;2022-09-17T23:49:58;95791.94;;;8.46;100.00
71956;BME280;59829;50.562;6.258;2022-09-17T23:59:59;95786.88;;;8.57;100.00
